createdAt,value
2024-05-09T00:02:16.227Z,6.53
2024-05-09T00:04:48.456Z,6.47
2024-05-09T00:07:21.114Z,6.42
2024-05-09T00:09:53.408Z,6.35
2024-05-09T00:12:25.740Z,6.28
2024-05-09T00:14:58.244Z,6.20
2024-05-09T00:17:31.003Z,6.12
2024-05-09T00:20:05.309Z,6.09
2024-05-09T00:22:41.495Z,6.07
2024-05-09T00:25:13.652Z,6.04
2024-05-09T00:27:45.807Z,6.01
2024-05-09T00:30:24.473Z,5.95
2024-05-09T00:33:05.698Z,5.87
2024-05-09T00:35:39.366Z,5.76
2024-05-09T00:38:12.078Z,5.68
2024-05-09T00:40:46.502Z,5.61
2024-05-09T00:43:18.991Z,5.60
2024-05-09T00:45:50.999Z,5.62
2024-05-09T00:48:23.273Z,5.63
2024-05-09T00:50:57.666Z,5.62
2024-05-09T00:53:30.538Z,5.61
2024-05-09T00:56:03.128Z,5.59
2024-05-09T00:58:35.416Z,5.57
2024-05-09T01:01:09.394Z,5.55
2024-05-09T01:03:41.833Z,5.52
2024-05-09T01:06:15.007Z,5.51
2024-05-09T01:08:47.241Z,5.49
2024-05-09T01:11:20.218Z,5.44
2024-05-09T01:13:52.526Z,5.38
2024-05-09T01:16:24.529Z,5.31
2024-05-09T01:18:56.713Z,5.26
2024-05-09T01:21:29.007Z,5.25
2024-05-09T01:24:01.387Z,5.26
2024-05-09T01:26:33.616Z,5.25
2024-05-09T01:29:05.901Z,5.23
2024-05-09T01:31:37.903Z,5.19
2024-05-09T01:34:10.392Z,5.12
2024-05-09T01:36:42.717Z,5.06
2024-05-09T01:39:14.946Z,5.02
2024-05-09T01:41:47.208Z,5.00
2024-05-09T01:44:19.582Z,4.99
2024-05-09T01:46:51.877Z,4.96
2024-05-09T01:49:24.413Z,4.93
2024-05-09T01:51:56.574Z,4.90
2024-05-09T01:54:28.586Z,4.85
2024-05-09T01:57:00.609Z,4.82
2024-05-09T01:59:32.864Z,4.82
2024-05-09T02:02:05.808Z,4.82
2024-05-09T02:04:38.002Z,4.78
2024-05-09T02:07:10.243Z,4.74
2024-05-09T02:09:43.198Z,4.69
2024-05-09T02:12:15.214Z,4.61
2024-05-09T02:14:47.403Z,4.51
2024-05-09T02:17:19.487Z,4.43
2024-05-09T02:19:51.537Z,4.39
2024-05-09T02:22:23.588Z,4.38
2024-05-09T02:24:55.584Z,4.37
2024-05-09T02:27:27.599Z,4.37
2024-05-09T02:29:59.525Z,4.33
2024-05-09T02:32:31.906Z,4.29
2024-05-09T02:35:04.062Z,4.26
2024-05-09T02:37:35.924Z,4.25
2024-05-09T02:40:14.551Z,4.22
2024-05-09T02:42:50.022Z,4.17
2024-05-09T02:45:22.048Z,4.10
2024-05-09T02:47:54.428Z,4.01
2024-05-09T02:50:34.188Z,3.95
2024-05-09T02:53:10.699Z,3.91
2024-05-09T02:55:43.611Z,3.89
2024-05-09T02:58:16.223Z,3.89
2024-05-09T03:00:48.509Z,3.91
2024-05-09T03:03:21.330Z,3.91
2024-05-09T03:05:53.722Z,3.90
2024-05-09T03:08:27.993Z,3.89
2024-05-09T03:10:59.945Z,3.88
2024-05-09T03:13:32.402Z,3.87
2024-05-09T03:16:04.951Z,3.83
2024-05-09T03:18:37.347Z,3.83
2024-05-09T03:21:10.349Z,3.81
2024-05-09T03:23:43.770Z,3.79
2024-05-09T03:26:17.475Z,3.73
2024-05-09T03:28:49.699Z,3.72
2024-05-09T03:31:23.414Z,3.77
2024-05-09T03:33:55.426Z,3.86
2024-05-09T03:36:27.639Z,3.99
2024-05-09T03:39:00.152Z,4.12
2024-05-09T03:41:33.791Z,4.22
2024-05-09T03:44:06.714Z,4.29
2024-05-09T03:46:42.024Z,4.32
2024-05-09T03:49:14.679Z,4.28
2024-05-09T03:51:47.199Z,4.32
2024-05-09T03:54:19.457Z,4.43
2024-05-09T03:56:51.705Z,4.57
2024-05-09T03:59:23.838Z,4.71
2024-05-09T04:01:56.629Z,4.83
2024-05-09T04:04:29.885Z,5.00
2024-05-09T04:07:02.294Z,5.22
2024-05-09T04:09:34.729Z,5.48
2024-05-09T04:12:09.083Z,5.75
2024-05-09T04:14:42.919Z,6.02
2024-05-09T04:17:14.811Z,6.33
2024-05-09T04:19:47.034Z,6.69
2024-05-09T04:22:19.146Z,6.97
2024-05-09T04:24:52.792Z,7.19
2024-05-09T04:27:24.851Z,7.41
2024-05-09T04:29:57.646Z,7.63
2024-05-09T04:32:30.125Z,7.85
2024-05-09T04:35:02.619Z,8.06
2024-05-09T04:37:34.997Z,8.26
2024-05-09T04:40:14.166Z,8.48
2024-05-09T04:42:52.864Z,8.67
2024-05-09T04:45:25.072Z,8.84
2024-05-09T04:47:57.922Z,9.03
2024-05-09T04:50:36.744Z,9.16
2024-05-09T04:53:16.168Z,9.26
2024-05-09T04:55:48.386Z,9.37
2024-05-09T04:58:20.398Z,9.51
2024-05-09T05:00:52.495Z,9.67
2024-05-09T05:03:24.946Z,9.81
2024-05-09T05:05:57.733Z,9.96
2024-05-09T05:08:29.866Z,10.13
2024-05-09T05:11:02.824Z,10.31
2024-05-09T05:13:38.645Z,10.48
2024-05-09T05:16:12.396Z,10.67
2024-05-09T05:18:44.849Z,10.83
2024-05-09T05:21:17.049Z,11.04
2024-05-09T05:23:51.970Z,11.34
2024-05-09T05:26:27.708Z,11.71
2024-05-09T05:29:00.144Z,12.03
2024-05-09T05:31:32.302Z,12.29
2024-05-09T05:34:04.366Z,12.47
2024-05-09T05:36:36.811Z,12.66
2024-05-09T05:39:09.382Z,12.87
2024-05-09T05:41:41.814Z,13.13
2024-05-09T05:44:15.858Z,13.32
2024-05-09T05:46:48.064Z,13.41
2024-05-09T05:49:20.658Z,13.51
2024-05-09T05:51:52.810Z,13.59
2024-05-09T05:54:27.699Z,13.67
2024-05-09T05:57:00.686Z,13.76
2024-05-09T05:59:33.105Z,13.90
2024-05-09T06:02:07.096Z,14.08
2024-05-09T06:04:39.299Z,14.28
2024-05-09T06:07:12.027Z,14.37
2024-05-09T06:09:46.043Z,14.46
2024-05-09T06:12:20.328Z,14.58
2024-05-09T06:14:52.590Z,14.67
2024-05-09T06:17:25.480Z,14.79
2024-05-09T06:19:58.250Z,14.90
2024-05-09T06:22:30.909Z,14.96
2024-05-09T06:25:13.344Z,14.90
2024-05-09T06:27:55.943Z,14.92
2024-05-09T06:30:36.906Z,15.05
2024-05-09T06:33:22.686Z,15.23
2024-05-09T06:35:59.363Z,15.30
2024-05-09T06:38:32.748Z,15.26
2024-05-09T06:41:05.969Z,15.21
2024-05-09T06:43:38.767Z,15.27
2024-05-09T06:46:11.133Z,15.48
2024-05-09T06:48:45.472Z,15.71
2024-05-09T06:51:21.283Z,15.90
2024-05-09T06:53:53.653Z,15.92
2024-05-09T06:56:27.782Z,15.85
2024-05-09T06:59:00.097Z,15.86
2024-05-09T07:01:32.420Z,15.94
2024-05-09T07:04:07.987Z,15.94
2024-05-09T07:06:43.031Z,15.98
2024-05-09T07:09:14.991Z,16.06
2024-05-09T07:11:49.515Z,16.08
2024-05-09T07:14:22.173Z,16.20
2024-05-09T07:16:54.637Z,16.35
2024-05-09T07:19:26.879Z,16.48
2024-05-09T07:21:59.924Z,16.46
2024-05-09T07:24:34.814Z,16.52
2024-05-09T07:27:07.544Z,16.64
2024-05-09T07:29:40.086Z,16.73
2024-05-09T07:32:12.925Z,16.72
2024-05-09T07:34:45.800Z,16.66
2024-05-09T07:37:18.420Z,16.59
2024-05-09T07:39:50.709Z,16.62
2024-05-09T07:42:22.932Z,16.66
2024-05-09T07:44:56.940Z,16.66
2024-05-09T07:48:57.368Z,16.52
2024-05-09T07:53:36.007Z,16.43
2024-05-09T07:55:56.961Z,16.44
2024-05-09T07:58:29.409Z,16.41
2024-05-09T08:01:05.967Z,16.41
2024-05-09T08:03:39.786Z,16.56
2024-05-09T08:06:22.517Z,16.59
2024-05-09T08:09:00.883Z,16.58
2024-05-09T08:11:38.838Z,16.63
2024-05-09T08:14:11.204Z,16.73
2024-05-09T08:16:43.497Z,16.88
2024-05-09T08:19:19.194Z,16.87
2024-05-09T08:21:51.480Z,16.75
2024-05-09T08:24:36.612Z,16.87
2024-05-09T08:27:08.876Z,16.99
2024-05-09T08:29:41.450Z,17.10
2024-05-09T08:32:13.958Z,17.34
2024-05-09T08:34:46.494Z,17.44
2024-05-09T08:37:22.427Z,17.53
2024-05-09T08:39:57.449Z,17.62
2024-05-09T08:42:35.389Z,17.64
2024-05-09T08:45:10.630Z,17.67
2024-05-09T08:47:43.865Z,17.80
2024-05-09T08:50:28.933Z,17.93
2024-05-09T08:53:08.492Z,17.90
2024-05-09T08:55:43.428Z,17.78
2024-05-09T08:58:20.474Z,17.85
2024-05-09T09:00:53.724Z,18.01
2024-05-09T09:03:31.798Z,18.13
2024-05-09T09:06:07.888Z,18.13
2024-05-09T09:08:41.404Z,18.08
2024-05-09T09:11:13.760Z,18.00
2024-05-09T09:13:46.163Z,17.82
2024-05-09T09:16:18.597Z,17.79
2024-05-09T09:18:51.422Z,17.93
2024-05-09T09:21:24.959Z,17.99
2024-05-09T09:24:00.378Z,17.99
2024-05-09T09:26:34.187Z,18.05
2024-05-09T09:29:06.367Z,18.24
2024-05-09T09:31:39.278Z,18.39
2024-05-09T09:34:11.741Z,18.54
2024-05-09T09:36:48.935Z,18.59
2024-05-09T09:39:23.920Z,18.51
2024-05-09T09:41:59.783Z,18.43
2024-05-09T09:44:33.067Z,18.31
2024-05-09T09:47:07.112Z,18.38
2024-05-09T09:49:40.818Z,18.49
2024-05-09T09:52:16.563Z,18.54
2024-05-09T09:54:51.090Z,18.56
2024-05-09T09:57:24.945Z,18.66
2024-05-09T09:59:58.509Z,18.85
2024-05-09T10:02:33.984Z,18.92
2024-05-09T10:05:06.856Z,18.91
2024-05-09T10:07:42.991Z,19.05
2024-05-09T10:10:31.567Z,19.04
2024-05-09T10:13:06.492Z,19.06
2024-05-09T10:15:47.981Z,19.12
2024-05-09T10:18:26.105Z,19.15
2024-05-09T10:21:00.280Z,19.30
2024-05-09T10:23:34.471Z,19.33
2024-05-09T10:26:07.620Z,19.12
2024-05-09T10:28:45.769Z,19.08
2024-05-09T10:31:21.381Z,19.19
2024-05-09T10:33:57.355Z,19.19
2024-05-09T10:36:29.821Z,19.20
2024-05-09T10:39:05.328Z,19.10
2024-05-09T10:41:40.811Z,19.03
2024-05-09T10:44:17.209Z,19.05
2024-05-09T10:46:50.316Z,19.10
2024-05-09T10:49:32.887Z,19.10
2024-05-09T10:52:06.461Z,19.13
2024-05-09T10:54:42.068Z,19.22
2024-05-09T10:57:14.345Z,19.23
2024-05-09T10:59:46.520Z,19.23
2024-05-09T11:02:20.103Z,19.22
2024-05-09T11:04:52.939Z,19.36
2024-05-09T11:07:29.188Z,19.59
2024-05-09T11:10:02.978Z,19.75
2024-05-09T11:12:36.014Z,19.84
2024-05-09T11:15:11.044Z,19.89
2024-05-09T11:17:43.437Z,19.86
2024-05-09T11:20:22.903Z,19.93
2024-05-09T11:23:05.138Z,20.05
2024-05-09T11:25:41.174Z,20.06
2024-05-09T11:28:15.344Z,20.09
2024-05-09T11:30:52.063Z,20.06
2024-05-09T11:33:29.916Z,20.00
2024-05-09T11:36:02.807Z,19.99
2024-05-09T11:38:35.228Z,20.02
2024-05-09T11:41:07.720Z,19.90
2024-05-09T11:43:40.045Z,19.82
2024-05-09T11:46:15.372Z,19.73
2024-05-09T11:48:48.135Z,19.66
2024-05-09T11:51:23.697Z,19.60
2024-05-09T11:53:56.146Z,19.57
2024-05-09T11:56:28.555Z,19.58
2024-05-09T11:59:00.725Z,19.67
2024-05-09T12:01:33.129Z,19.74
2024-05-09T12:04:15.758Z,19.90
2024-05-09T12:06:48.237Z,20.00
2024-05-09T12:09:20.862Z,20.13
2024-05-09T12:11:53.110Z,20.25
2024-05-09T12:14:28.504Z,20.29
2024-05-09T12:17:11.239Z,20.29
2024-05-09T12:19:43.875Z,20.31
2024-05-09T12:22:16.680Z,20.24
2024-05-09T12:24:51.388Z,20.17
2024-05-09T12:27:24.044Z,20.16
2024-05-09T12:29:59.709Z,20.14
2024-05-09T12:32:52.127Z,20.22
2024-05-09T12:35:28.098Z,20.36
2024-05-09T12:38:00.651Z,20.48
2024-05-09T12:40:36.873Z,20.43
2024-05-09T12:43:13.273Z,20.47
2024-05-09T12:45:45.653Z,20.53
2024-05-09T12:48:20.987Z,20.53
2024-05-09T12:50:54.912Z,20.48
2024-05-09T12:53:27.001Z,20.42
2024-05-09T12:56:02.376Z,20.44
2024-05-09T12:58:36.000Z,20.42
2024-05-09T13:01:08.554Z,20.36
2024-05-09T13:03:43.925Z,20.33
2024-05-09T13:06:16.176Z,20.32
2024-05-09T13:08:48.405Z,20.40
2024-05-09T13:11:20.505Z,20.52
2024-05-09T13:13:52.796Z,20.53
2024-05-09T13:16:25.591Z,20.41
2024-05-09T13:18:58.249Z,20.28
2024-05-09T13:21:30.744Z,20.29
2024-05-09T13:24:03.383Z,20.42
2024-05-09T13:26:35.798Z,20.53
2024-05-09T13:29:08.351Z,20.65
2024-05-09T13:31:40.627Z,20.81
2024-05-09T13:34:12.669Z,20.98
2024-05-09T13:36:44.797Z,21.11
2024-05-09T13:39:16.751Z,21.13
2024-05-09T13:41:48.909Z,21.12
2024-05-09T13:44:20.920Z,21.06
2024-05-09T13:46:53.537Z,20.99
2024-05-09T13:49:25.625Z,20.93
2024-05-09T13:51:57.871Z,20.87
2024-05-09T13:54:30.023Z,20.78
2024-05-09T13:57:03.164Z,20.78
2024-05-09T13:59:35.128Z,20.81
2024-05-09T14:02:07.748Z,20.88
2024-05-09T14:04:40.406Z,20.94
2024-05-09T14:07:13.325Z,20.94
2024-05-09T14:09:47.063Z,20.95
2024-05-09T14:12:19.505Z,21.05
2024-05-09T14:14:51.526Z,21.17
2024-05-09T14:17:24.281Z,21.16
2024-05-09T14:19:57.199Z,21.14
2024-05-09T14:22:29.931Z,21.13
2024-05-09T14:25:02.860Z,21.09
2024-05-09T14:27:35.463Z,21.03
2024-05-09T14:30:15.061Z,20.91
2024-05-09T14:32:55.285Z,20.86
2024-05-09T14:35:27.706Z,20.88
2024-05-09T14:38:00.496Z,20.91
2024-05-09T14:40:40.750Z,20.95
2024-05-09T14:43:19.790Z,20.98
2024-05-09T14:45:53.564Z,20.95
2024-05-09T14:48:26.959Z,20.97
2024-05-09T14:50:58.996Z,20.99
2024-05-09T14:53:31.336Z,21.00
2024-05-09T14:56:03.552Z,20.92
2024-05-09T14:58:35.719Z,20.91
2024-05-09T15:01:07.879Z,21.02
2024-05-09T15:03:40.824Z,21.17
2024-05-09T15:06:13.282Z,21.21
2024-05-09T15:08:45.502Z,21.18
2024-05-09T15:11:17.953Z,21.09
2024-05-09T15:13:50.641Z,21.04
2024-05-09T15:16:35.077Z,20.92
2024-05-09T15:19:07.601Z,20.83
2024-05-09T15:21:40.067Z,20.86
2024-05-09T15:24:12.831Z,20.89
2024-05-09T15:26:45.548Z,20.93
2024-05-09T15:29:17.926Z,20.96
2024-05-09T15:31:50.250Z,20.95
2024-05-09T15:34:22.553Z,20.92
2024-05-09T15:36:55.330Z,20.85
2024-05-09T15:39:30.135Z,20.86
2024-05-09T15:42:05.788Z,20.89
2024-05-09T15:44:38.003Z,20.86
2024-05-09T15:47:10.029Z,20.85
2024-05-09T15:49:42.748Z,20.90
2024-05-09T15:52:15.773Z,21.00
2024-05-09T15:54:50.317Z,21.05
2024-05-09T15:57:23.490Z,21.08
2024-05-09T15:59:55.633Z,21.09
2024-05-09T16:02:28.010Z,21.15
2024-05-09T16:05:00.949Z,21.16
2024-05-09T16:07:37.244Z,21.11
2024-05-09T16:10:13.196Z,21.05
2024-05-09T16:12:48.743Z,20.98
2024-05-09T16:15:21.084Z,20.90
2024-05-09T16:17:53.916Z,20.80
2024-05-09T16:20:49.387Z,20.74
2024-05-09T16:23:22.950Z,20.73
2024-05-09T16:25:55.384Z,20.73
2024-05-09T16:28:28.347Z,20.76
2024-05-09T16:31:01.558Z,20.74
2024-05-09T16:33:33.862Z,20.73
2024-05-09T16:36:07.110Z,20.75
2024-05-09T16:38:40.908Z,20.69
2024-05-09T16:41:14.993Z,20.65
2024-05-09T16:43:47.122Z,20.61
2024-05-09T16:46:31.879Z,20.61
2024-05-09T16:49:05.760Z,20.68
2024-05-09T16:51:38.245Z,20.76
2024-05-09T16:54:10.688Z,20.84
2024-05-09T16:56:43.236Z,20.93
2024-05-09T16:59:15.435Z,21.00
2024-05-09T17:01:47.611Z,21.11
2024-05-09T17:04:20.087Z,21.27
2024-05-09T17:06:52.770Z,21.58
2024-05-09T17:09:25.007Z,22.26
2024-05-09T17:11:57.632Z,22.96
2024-05-09T17:14:29.738Z,23.51
2024-05-09T17:17:01.960Z,24.02
2024-05-09T17:19:34.125Z,24.49
2024-05-09T17:22:06.508Z,25.00
2024-05-09T17:24:38.750Z,25.30
2024-05-09T17:27:11.583Z,25.42
2024-05-09T17:29:43.826Z,25.44
2024-05-09T17:32:16.313Z,25.49
2024-05-09T17:34:49.369Z,25.67
2024-05-09T17:37:21.902Z,25.63
2024-05-09T17:39:55.668Z,25.45
2024-05-09T17:42:28.145Z,25.45
2024-05-09T17:45:00.759Z,25.59
2024-05-09T17:47:33.036Z,25.40
2024-05-09T17:50:09.569Z,24.84
2024-05-09T17:52:43.707Z,24.41
2024-05-09T17:55:16.442Z,24.20
2024-05-09T17:57:48.846Z,23.91
2024-05-09T18:00:29.248Z,23.29
2024-05-09T18:03:12.064Z,22.55
2024-05-09T18:05:47.066Z,21.85
2024-05-09T18:08:19.812Z,21.22
2024-05-09T18:10:54.053Z,20.61
2024-05-09T18:13:29.041Z,20.00
2024-05-09T18:16:01.627Z,19.37
2024-05-09T18:18:33.767Z,18.78
2024-05-09T18:21:06.640Z,18.28
2024-05-09T18:23:38.567Z,17.84
2024-05-09T18:26:10.772Z,17.44
2024-05-09T18:28:43.486Z,17.06
2024-05-09T18:31:17.345Z,16.70
2024-05-09T18:33:50.851Z,16.35
2024-05-09T18:36:23.738Z,15.94
2024-05-09T18:38:56.284Z,15.60
2024-05-09T18:41:28.555Z,15.29
2024-05-09T18:44:01.052Z,15.01
2024-05-09T18:46:33.539Z,14.74
2024-05-09T18:49:05.792Z,14.43
2024-05-09T18:51:37.986Z,14.14
2024-05-09T18:54:09.914Z,13.88
2024-05-09T18:56:43.117Z,13.63
2024-05-09T18:59:15.616Z,13.40
2024-05-09T19:01:47.708Z,13.17
2024-05-09T19:04:20.191Z,12.97
2024-05-09T19:06:55.800Z,12.79
2024-05-09T19:09:28.171Z,12.62
2024-05-09T19:12:03.279Z,12.46
2024-05-09T19:14:35.441Z,12.32
2024-05-09T19:17:07.953Z,12.16
2024-05-09T19:19:40.638Z,12.00
2024-05-09T19:22:13.055Z,11.83
2024-05-09T19:24:45.578Z,11.67
2024-05-09T19:27:18.154Z,11.55
2024-05-09T19:29:52.261Z,11.45
2024-05-09T19:32:26.465Z,11.35
2024-05-09T19:34:59.890Z,11.26
2024-05-09T19:37:32.650Z,11.19
2024-05-09T19:40:08.534Z,11.12
2024-05-09T19:42:45.583Z,11.02
2024-05-09T19:45:18.291Z,10.91
2024-05-09T19:47:50.915Z,10.79
2024-05-09T19:50:31.904Z,10.69
2024-05-09T19:53:23.504Z,10.57
2024-05-09T19:55:57.937Z,10.43
2024-05-09T19:58:30.940Z,10.33
2024-05-09T20:01:03.832Z,10.23
2024-05-09T20:03:38.445Z,10.17
2024-05-09T20:06:10.909Z,10.11
2024-05-09T20:08:43.333Z,10.06
2024-05-09T20:11:17.763Z,10.02
2024-05-09T20:13:49.836Z,9.95
2024-05-09T20:16:22.215Z,9.88
2024-05-09T20:18:54.583Z,9.80
2024-05-09T20:21:29.805Z,9.74
2024-05-09T20:24:05.049Z,9.70
2024-05-09T20:26:37.316Z,9.68
2024-05-09T20:29:09.410Z,9.65
2024-05-09T20:31:44.087Z,9.65
2024-05-09T20:34:16.190Z,9.63
2024-05-09T20:36:51.816Z,9.60
2024-05-09T20:39:28.609Z,9.54
2024-05-09T20:42:03.271Z,9.49
2024-05-09T20:44:35.520Z,9.45
2024-05-09T20:47:07.938Z,9.43
2024-05-09T20:49:40.452Z,9.39
2024-05-09T20:52:12.717Z,9.31
2024-05-09T20:54:44.941Z,9.26
2024-05-09T20:57:16.949Z,9.21
2024-05-09T20:59:48.786Z,9.13
2024-05-09T21:02:21.592Z,9.11
2024-05-09T21:04:56.877Z,9.07
2024-05-09T21:07:29.625Z,9.04
2024-05-09T21:10:15.932Z,9.03
2024-05-09T21:12:54.711Z,9.01
2024-05-09T21:15:27.024Z,8.98
2024-05-09T21:17:59.869Z,8.93
2024-05-09T21:20:34.781Z,8.88
2024-05-09T21:23:07.908Z,8.83
2024-05-09T21:25:40.391Z,8.75
2024-05-09T21:28:14.696Z,8.69
2024-05-09T21:30:47.669Z,8.66
2024-05-09T21:33:20.150Z,8.63
2024-05-09T21:35:52.184Z,8.58
2024-05-09T21:38:24.605Z,8.53
2024-05-09T21:40:56.805Z,8.48
2024-05-09T21:43:31.471Z,8.41
2024-05-09T21:46:04.135Z,8.31
2024-05-09T21:48:37.037Z,8.21
2024-05-09T21:51:15.854Z,8.16
2024-05-09T21:53:47.887Z,8.15
2024-05-09T21:56:19.869Z,8.08
2024-05-09T21:58:54.413Z,8.03
2024-05-09T22:01:26.252Z,8.04
2024-05-09T22:03:58.412Z,8.00
2024-05-09T22:06:30.550Z,7.95
2024-05-09T22:09:05.050Z,7.91
2024-05-09T22:11:36.932Z,7.91
2024-05-09T22:14:09.000Z,7.90
2024-05-09T22:16:44.214Z,7.91
2024-05-09T22:19:16.754Z,7.92
2024-05-09T22:21:49.412Z,7.90
2024-05-09T22:24:21.631Z,7.85
2024-05-09T22:26:55.189Z,7.81
2024-05-09T22:29:27.561Z,7.77
2024-05-09T22:31:59.653Z,7.75
2024-05-09T22:34:32.294Z,7.74
2024-05-09T22:37:04.624Z,7.73
2024-05-09T22:39:37.026Z,7.71
2024-05-09T22:42:08.987Z,7.68
2024-05-09T22:44:41.715Z,7.64
2024-05-09T22:47:13.945Z,7.58
2024-05-09T22:49:46.156Z,7.56
2024-05-09T22:52:18.971Z,7.53
2024-05-09T22:54:51.203Z,7.52
2024-05-09T22:57:23.104Z,7.50
2024-05-09T22:59:55.712Z,7.46
2024-05-09T23:02:27.930Z,7.42
2024-05-09T23:05:00.064Z,7.39
2024-05-09T23:07:32.835Z,7.36
2024-05-09T23:10:12.948Z,7.33
2024-05-09T23:12:52.071Z,7.25
2024-05-09T23:15:24.370Z,7.17
2024-05-09T23:17:57.288Z,7.11
2024-05-09T23:20:36.969Z,7.05
2024-05-09T23:23:12.393Z,6.98
2024-05-09T23:25:44.514Z,6.98
2024-05-09T23:28:16.975Z,6.98
2024-05-09T23:30:49.266Z,6.99
2024-05-09T23:33:21.595Z,7.00
2024-05-09T23:35:53.843Z,6.99
2024-05-09T23:38:26.366Z,6.97
2024-05-09T23:40:58.389Z,6.94
2024-05-09T23:43:30.570Z,6.92
2024-05-09T23:46:02.884Z,6.92
2024-05-09T23:48:35.079Z,6.93
2024-05-09T23:51:07.390Z,6.93
2024-05-09T23:53:39.725Z,6.94
2024-05-09T23:56:14.259Z,6.91
2024-05-09T23:58:47.170Z,6.88
